createdAt,value
2023-02-14T00:00:52.586Z,-0.09
2023-02-14T00:03:28.007Z,-0.09
2023-02-14T00:05:55.769Z,-0.08
2023-02-14T00:08:24.128Z,-0.09
2023-02-14T00:10:51.896Z,-0.08
2023-02-14T00:13:19.693Z,-0.11
2023-02-14T00:15:47.593Z,-0.16
2023-02-14T00:18:15.540Z,-0.20
2023-02-14T00:20:43.353Z,-0.21
2023-02-14T00:23:11.356Z,-0.21
2023-02-14T00:25:39.243Z,-0.21
2023-02-14T00:28:07.132Z,-0.21
2023-02-14T00:30:35.173Z,-0.22
2023-02-14T00:33:05.926Z,-0.21
2023-02-14T00:35:37.918Z,-0.20
2023-02-14T00:38:05.672Z,-0.20
2023-02-14T00:40:33.389Z,-0.18
2023-02-14T00:43:01.460Z,-0.17
2023-02-14T00:45:29.312Z,-0.14
2023-02-14T00:47:57.198Z,-0.13
2023-02-14T00:50:25.007Z,-0.12
2023-02-14T00:52:52.777Z,-0.11
2023-02-14T00:55:20.697Z,-0.12
2023-02-14T00:57:48.563Z,-0.12
2023-02-14T01:00:17.047Z,-0.12
2023-02-14T01:02:45.021Z,-0.11
2023-02-14T01:05:13.184Z,-0.11
2023-02-14T01:07:41.161Z,-0.12
2023-02-14T01:10:11.681Z,-0.11
2023-02-14T01:12:39.517Z,-0.11
2023-02-14T01:15:09.365Z,-0.10
2023-02-14T01:17:37.849Z,-0.10
2023-02-14T01:20:06.225Z,-0.12
2023-02-14T01:22:38.393Z,-0.13
2023-02-14T01:25:08.013Z,-0.14
2023-02-14T01:27:35.824Z,-0.15
2023-02-14T01:30:04.219Z,-0.15
2023-02-14T01:32:32.523Z,-0.18
2023-02-14T01:35:00.508Z,-0.17
2023-02-14T01:37:29.898Z,-0.17
2023-02-14T01:39:57.766Z,-0.17
2023-02-14T01:42:26.148Z,-0.17
2023-02-14T01:44:56.372Z,-0.18
2023-02-14T01:47:26.589Z,-0.17
2023-02-14T01:49:57.323Z,-0.17
2023-02-14T01:52:37.677Z,-0.18
2023-02-14T01:55:12.590Z,-0.19
2023-02-14T01:57:44.387Z,-0.19
2023-02-14T02:00:31.355Z,-0.19
2023-02-14T02:03:01.720Z,-0.20
2023-02-14T02:05:30.098Z,-0.20
2023-02-14T02:08:00.328Z,-0.20
2023-02-14T02:10:29.313Z,-0.21
2023-02-14T02:13:00.056Z,-0.22
2023-02-14T02:15:30.606Z,-0.22
2023-02-14T02:18:16.568Z,-0.22
2023-02-14T02:20:45.165Z,-0.22
2023-02-14T02:23:25.103Z,-0.22
2023-02-14T02:26:02.237Z,-0.23
2023-02-14T02:28:56.596Z,-0.23
2023-02-14T02:31:38.105Z,-0.24
2023-02-14T02:34:09.616Z,-0.26
2023-02-14T02:36:55.581Z,-0.26
2023-02-14T02:39:24.788Z,-0.25
2023-02-14T02:41:58.613Z,-0.21
2023-02-14T02:44:26.995Z,-0.18
2023-02-14T02:47:13.190Z,-0.13
2023-02-14T02:50:15.482Z,-0.07
2023-02-14T02:53:02.172Z,0.02
2023-02-14T02:55:56.788Z,0.09
2023-02-14T02:58:28.114Z,0.15
2023-02-14T03:00:59.602Z,0.20
2023-02-14T03:03:48.838Z,0.25
2023-02-14T03:06:16.745Z,0.30
2023-02-14T03:08:46.586Z,0.33
2023-02-14T03:11:15.844Z,0.36
2023-02-14T03:13:46.648Z,0.39
2023-02-14T03:16:27.559Z,0.41
2023-02-14T03:19:04.513Z,0.43
2023-02-14T03:21:40.114Z,0.45
2023-02-14T03:24:31.066Z,0.46
2023-02-14T03:27:04.257Z,0.45
2023-02-14T03:29:32.141Z,0.43
2023-02-14T03:32:04.702Z,0.44
2023-02-14T03:34:37.806Z,0.44
2023-02-14T03:37:11.406Z,0.45
2023-02-14T03:39:45.630Z,0.46
2023-02-14T03:42:18.950Z,0.49
2023-02-14T03:44:48.656Z,0.53
2023-02-14T03:47:22.143Z,0.54
2023-02-14T03:49:59.934Z,0.57
2023-02-14T03:52:29.745Z,0.61
2023-02-14T03:54:58.847Z,0.66
2023-02-14T03:57:32.438Z,0.67
2023-02-14T04:00:00.570Z,0.69
2023-02-14T04:02:35.010Z,0.72
2023-02-14T04:05:06.181Z,0.75
2023-02-14T04:07:43.675Z,0.77
2023-02-14T04:10:11.656Z,0.80
2023-02-14T04:12:39.404Z,0.81
2023-02-14T04:15:07.831Z,0.84
2023-02-14T04:17:54.830Z,0.86
2023-02-14T04:20:22.871Z,0.88
2023-02-14T04:22:51.968Z,0.88
2023-02-14T04:25:20.961Z,0.86
2023-02-14T04:27:48.929Z,0.88
2023-02-14T04:30:18.138Z,0.89
2023-02-14T04:32:46.510Z,0.89
2023-02-14T04:35:14.967Z,0.89
2023-02-14T04:37:42.960Z,0.89
2023-02-14T04:40:11.100Z,0.90
2023-02-14T04:42:39.150Z,0.91
2023-02-14T04:45:07.378Z,0.92
2023-02-14T04:47:35.355Z,0.94
2023-02-14T04:50:03.522Z,0.94
2023-02-14T04:52:31.493Z,0.95
2023-02-14T04:54:59.241Z,0.96
2023-02-14T04:57:27.082Z,0.96
2023-02-14T04:59:55.092Z,0.98
2023-02-14T05:02:23.197Z,0.98
2023-02-14T05:04:51.236Z,0.99
2023-02-14T05:07:19.308Z,0.99
2023-02-14T05:09:47.051Z,0.99
2023-02-14T05:12:15.812Z,1.01
2023-02-14T05:14:43.835Z,1.02
2023-02-14T05:17:11.701Z,1.03
2023-02-14T05:19:39.513Z,1.03
2023-02-14T05:22:07.535Z,1.05
2023-02-14T05:24:35.606Z,1.04
2023-02-14T05:27:03.474Z,1.06
2023-02-14T05:29:31.341Z,1.07
2023-02-14T05:31:59.482Z,1.08
2023-02-14T05:34:27.563Z,1.09
2023-02-14T05:36:55.659Z,1.08
2023-02-14T05:39:23.537Z,1.08
2023-02-14T05:41:51.395Z,1.09
2023-02-14T05:44:19.422Z,1.11
2023-02-14T05:46:47.232Z,1.14
2023-02-14T05:49:15.168Z,1.19
2023-02-14T05:51:42.981Z,1.20
2023-02-14T05:54:11.203Z,1.24
2023-02-14T05:56:39.520Z,1.26
2023-02-14T05:59:07.398Z,1.28
2023-02-14T06:01:35.365Z,1.33
2023-02-14T06:04:03.447Z,1.34
2023-02-14T06:06:31.404Z,1.35
2023-02-14T06:08:59.393Z,1.36
2023-02-14T06:11:27.241Z,1.36
2023-02-14T06:13:55.046Z,1.36
2023-02-14T06:16:23.057Z,1.35
2023-02-14T06:18:50.901Z,1.36
2023-02-14T06:21:18.687Z,1.38
2023-02-14T06:23:46.545Z,1.38
2023-02-14T06:26:14.550Z,1.38
2023-02-14T06:28:42.930Z,1.38
2023-02-14T06:31:15.463Z,1.38
2023-02-14T06:33:43.558Z,1.38
2023-02-14T06:36:11.327Z,1.39
2023-02-14T06:38:39.234Z,1.38
2023-02-14T06:41:07.985Z,1.39
2023-02-14T06:43:36.386Z,1.41
2023-02-14T06:46:04.446Z,1.42
2023-02-14T06:48:32.416Z,1.42
2023-02-14T06:51:00.695Z,1.44
2023-02-14T06:53:28.847Z,1.46
2023-02-14T06:55:56.837Z,1.46
2023-02-14T06:58:24.758Z,1.49
2023-02-14T07:00:54.606Z,1.49
2023-02-14T07:03:22.475Z,1.47
2023-02-14T07:05:50.357Z,1.47
2023-02-14T07:08:18.647Z,1.48
2023-02-14T07:10:46.906Z,1.47
2023-02-14T07:13:14.780Z,1.50
2023-02-14T07:15:42.695Z,1.50
2023-02-14T07:18:11.641Z,1.50
2023-02-14T07:20:39.710Z,1.51
2023-02-14T07:23:07.688Z,1.51
2023-02-14T07:25:35.550Z,1.53
2023-02-14T07:28:04.854Z,1.53
2023-02-14T07:30:32.914Z,1.52
2023-02-14T07:33:00.800Z,1.55
2023-02-14T07:35:28.660Z,1.56
2023-02-14T07:37:56.658Z,1.58
2023-02-14T07:40:25.352Z,1.60
2023-02-14T07:42:54.372Z,1.63
2023-02-14T07:45:23.504Z,1.65
2023-02-14T07:47:52.438Z,1.65
2023-02-14T07:50:21.280Z,1.70
2023-02-14T07:52:49.235Z,1.74
2023-02-14T07:55:17.525Z,1.75
2023-02-14T07:57:47.062Z,1.78
2023-02-14T08:00:15.641Z,1.80
2023-02-14T08:02:43.581Z,1.82
2023-02-14T08:05:11.709Z,1.86
2023-02-14T08:07:39.766Z,1.90
2023-02-14T08:10:07.947Z,1.95
2023-02-14T08:12:54.323Z,1.98
2023-02-14T08:15:41.224Z,2.03
2023-02-14T08:18:09.287Z,2.09
2023-02-14T08:20:37.080Z,2.10
2023-02-14T08:23:04.978Z,2.12
2023-02-14T08:25:33.054Z,2.14
2023-02-14T08:28:04.750Z,2.21
2023-02-14T08:30:32.693Z,2.25
2023-02-14T08:33:00.912Z,2.28
2023-02-14T08:35:28.695Z,2.31
2023-02-14T08:37:56.704Z,2.33
2023-02-14T08:40:24.801Z,2.36
2023-02-14T08:42:52.636Z,2.41
2023-02-14T08:45:21.300Z,2.45
2023-02-14T09:08:54.267Z,2.99
2023-02-14T09:11:24.712Z,3.13
2023-02-14T09:14:03.062Z,3.15
2023-02-14T09:16:34.206Z,3.17
2023-02-14T09:19:02.472Z,3.21
2023-02-14T09:21:36.290Z,3.21
2023-02-14T09:24:04.632Z,3.28
2023-02-14T09:26:40.576Z,3.32
2023-02-14T09:29:10.121Z,3.38
2023-02-14T09:31:38.548Z,3.47
2023-02-14T09:34:17.602Z,3.54
2023-02-14T09:36:45.947Z,3.69
2023-02-14T09:39:17.236Z,3.75
2023-02-14T09:42:08.337Z,3.77
2023-02-14T09:44:51.839Z,3.85
2023-02-14T09:47:47.894Z,3.92
2023-02-14T09:50:28.822Z,3.95
2023-02-14T09:53:06.464Z,4.00
2023-02-14T09:55:50.646Z,4.00
2023-02-14T09:58:56.178Z,4.01
2023-02-14T10:01:31.002Z,4.11
2023-02-14T10:04:13.686Z,4.18
2023-02-14T10:06:51.009Z,4.21
2023-02-14T10:09:40.685Z,4.34
2023-02-14T10:12:22.106Z,4.43
2023-02-14T10:14:57.362Z,4.57
2023-02-14T10:17:37.741Z,4.69
2023-02-14T10:20:41.650Z,4.82
2023-02-14T10:23:33.688Z,4.92
2023-02-14T10:26:25.351Z,4.98
2023-02-14T10:28:56.113Z,4.96
2023-02-14T10:31:51.701Z,4.96
2023-02-14T10:34:45.984Z,4.99
2023-02-14T10:37:33.103Z,5.06
2023-02-14T10:40:38.205Z,5.19
2023-02-14T10:43:27.682Z,5.36
2023-02-14T10:46:23.749Z,5.48
2023-02-14T10:49:10.492Z,5.56
2023-02-14T10:51:58.902Z,5.65
2023-02-14T10:54:42.734Z,5.78
2023-02-14T10:57:30.980Z,5.87
2023-02-14T11:00:03.170Z,5.94
2023-02-14T11:02:48.182Z,5.99
2023-02-14T11:05:33.642Z,6.18
2023-02-14T11:08:02.904Z,6.52
2023-02-14T11:10:33.033Z,6.74
2023-02-14T11:13:20.038Z,6.87
2023-02-14T11:15:51.903Z,7.01
2023-02-14T11:18:25.198Z,7.08
2023-02-14T11:21:12.586Z,7.02
2023-02-14T11:23:45.773Z,7.10
2023-02-14T11:26:33.469Z,7.06
2023-02-14T11:29:14.958Z,6.93
2023-02-14T11:31:45.862Z,6.75
2023-02-14T11:34:40.901Z,6.80
2023-02-14T11:37:34.365Z,7.00
2023-02-14T11:40:29.466Z,7.17
2023-02-14T11:43:20.749Z,7.54
2023-02-14T11:45:50.340Z,8.10
2023-02-14T11:48:37.277Z,8.72
2023-02-14T11:51:14.524Z,9.32
2023-02-14T11:53:56.357Z,9.82
2023-02-14T11:56:24.595Z,10.28
2023-02-14T11:59:04.759Z,10.68
2023-02-14T12:01:36.100Z,11.07
2023-02-14T12:04:14.283Z,11.44
2023-02-14T12:06:44.533Z,11.44
2023-02-14T12:09:24.772Z,11.20
2023-02-14T12:12:00.128Z,10.92
2023-02-14T12:14:34.077Z,10.96
2023-02-14T12:17:14.261Z,10.80
2023-02-14T12:19:54.931Z,10.93
2023-02-14T12:22:28.547Z,11.22
2023-02-14T12:25:05.925Z,11.44
2023-02-14T12:27:49.347Z,11.11
2023-02-14T12:30:23.823Z,10.78
2023-02-14T12:32:56.474Z,10.70
2023-02-14T12:35:43.263Z,10.47
2023-02-14T12:38:27.723Z,10.18
2023-02-14T12:40:59.279Z,9.81
2023-02-14T12:43:53.688Z,9.39
2023-02-14T12:46:31.286Z,9.08
2023-02-14T12:49:18.775Z,8.88
2023-02-14T12:52:18.593Z,8.42
2023-02-14T12:55:06.261Z,7.95
2023-02-14T12:58:09.255Z,7.71
2023-02-14T13:00:43.433Z,7.41
2023-02-14T13:03:52.370Z,7.41
2023-02-14T13:06:28.026Z,7.34
2023-02-14T13:09:28.565Z,7.33
2023-02-14T13:12:08.299Z,7.05
2023-02-14T13:14:58.159Z,6.95
2023-02-14T13:17:55.263Z,6.88
2023-02-14T13:21:11.731Z,6.74
2023-02-14T13:23:47.150Z,6.49
2023-02-14T13:26:37.272Z,6.39
2023-02-14T13:29:11.508Z,6.33
2023-02-14T13:31:41.653Z,6.27
2023-02-14T13:34:33.326Z,6.18
2023-02-14T13:37:06.473Z,6.10
2023-02-14T13:39:39.100Z,6.00
2023-02-14T13:42:08.501Z,5.79
2023-02-14T13:44:44.113Z,5.56
2023-02-14T13:47:21.864Z,5.43
2023-02-14T13:49:59.708Z,5.31
2023-02-14T13:52:40.311Z,5.23
2023-02-14T13:55:26.404Z,5.14
2023-02-14T13:58:18.499Z,5.09
2023-02-14T14:00:48.665Z,4.98
2023-02-14T14:03:28.925Z,4.86
2023-02-14T14:06:02.536Z,4.76
2023-02-14T14:08:32.132Z,4.70
2023-02-14T14:11:03.132Z,4.63
2023-02-14T14:13:40.494Z,4.53
2023-02-14T14:16:24.237Z,4.43
2023-02-14T14:19:30.622Z,4.40
2023-02-14T14:22:05.859Z,4.37
2023-02-14T14:24:40.289Z,4.36
2023-02-14T14:27:15.130Z,4.32
2023-02-14T14:29:52.553Z,4.28
2023-02-14T14:32:26.561Z,4.22
2023-02-14T14:34:56.246Z,4.14
2023-02-14T14:37:27.928Z,4.05
2023-02-14T14:40:07.074Z,3.96
2023-02-14T14:42:37.838Z,3.86
2023-02-14T14:45:32.626Z,3.76
2023-02-14T14:48:08.923Z,3.74
2023-02-14T14:50:45.476Z,3.75
2023-02-14T14:53:32.330Z,3.74
2023-02-14T14:56:01.138Z,3.74
2023-02-14T14:58:34.939Z,3.72
2023-02-14T15:01:04.889Z,3.70
2023-02-14T15:03:36.606Z,3.69
2023-02-14T15:06:20.598Z,3.62
2023-02-14T15:08:49.965Z,3.56
2023-02-14T15:11:47.354Z,3.54
2023-02-14T15:14:22.827Z,3.50
2023-02-14T15:16:57.722Z,3.45
2023-02-14T15:19:35.090Z,3.40
2023-02-14T15:22:07.778Z,3.36
2023-02-14T15:24:38.497Z,3.34
2023-02-14T15:27:22.793Z,3.32
2023-02-14T15:29:58.540Z,3.29
2023-02-14T15:32:32.467Z,3.26
2023-02-14T15:35:07.554Z,3.25
2023-02-14T15:37:38.906Z,3.24
2023-02-14T15:40:09.136Z,3.23
2023-02-14T15:43:01.591Z,3.23
2023-02-14T15:45:32.721Z,3.19
2023-02-14T15:48:08.163Z,3.15
2023-02-14T15:50:46.368Z,3.12
2023-02-14T15:53:20.586Z,3.06
2023-02-14T15:55:50.607Z,3.06
2023-02-14T15:58:22.702Z,3.05
2023-02-14T16:00:53.395Z,3.04
2023-02-14T16:03:26.174Z,3.03
2023-02-14T16:05:55.232Z,3.00
2023-02-14T16:08:33.091Z,2.98
2023-02-14T16:11:09.822Z,2.94
2023-02-14T16:13:42.630Z,2.96
2023-02-14T16:16:13.926Z,2.97
2023-02-14T16:19:12.459Z,2.94
2023-02-14T16:22:04.588Z,2.90
2023-02-14T16:24:38.022Z,2.88
2023-02-14T16:27:19.588Z,2.86
2023-02-14T16:29:59.379Z,2.84
2023-02-14T16:32:30.721Z,2.79
2023-02-14T16:35:00.793Z,2.78
2023-02-14T16:37:36.544Z,2.75
2023-02-14T16:40:14.171Z,2.75
2023-02-14T16:42:43.897Z,2.72
2023-02-14T16:45:17.599Z,2.71
2023-02-14T16:47:49.111Z,2.71
2023-02-14T16:50:28.350Z,2.69
2023-02-14T16:52:57.948Z,2.66
2023-02-14T16:55:30.097Z,2.63
2023-02-14T16:58:01.057Z,2.60
2023-02-14T17:00:29.378Z,2.58
2023-02-14T17:03:06.208Z,2.55
2023-02-14T17:05:36.090Z,2.49
2023-02-14T17:08:06.370Z,2.44
2023-02-14T17:10:35.784Z,2.41
2023-02-14T17:13:08.060Z,2.38
2023-02-14T17:15:49.828Z,2.37
2023-02-14T17:18:19.024Z,2.35
2023-02-14T17:20:48.319Z,2.32
2023-02-14T17:23:16.701Z,2.29
2023-02-14T17:25:44.925Z,2.28
2023-02-14T17:28:13.449Z,2.29
2023-02-14T17:30:41.524Z,2.27
2023-02-14T17:33:10.035Z,2.30
2023-02-14T17:35:38.498Z,2.30
2023-02-14T17:38:06.669Z,2.32
2023-02-14T17:40:35.256Z,2.32
2023-02-14T17:43:04.249Z,2.34
2023-02-14T17:45:32.354Z,2.34
2023-02-14T17:48:01.880Z,2.31
2023-02-14T17:50:39.304Z,2.33
2023-02-14T17:53:07.914Z,2.33
2023-02-14T17:55:37.174Z,2.34
2023-02-14T17:58:05.709Z,2.33
2023-02-14T18:00:34.016Z,2.30
2023-02-14T18:03:02.160Z,2.30
2023-02-14T18:05:30.689Z,2.29
2023-02-14T18:07:58.966Z,2.30
2023-02-14T18:10:37.880Z,2.31
2023-02-14T18:13:28.680Z,2.31
2023-02-14T18:15:57.463Z,2.30
2023-02-14T18:18:25.658Z,2.31
2023-02-14T18:20:55.449Z,2.29
2023-02-14T18:23:24.151Z,2.32
2023-02-14T18:25:55.668Z,2.33
2023-02-14T18:28:25.894Z,2.32
2023-02-14T18:30:54.822Z,2.35
2023-02-14T18:33:25.387Z,2.36
2023-02-14T18:35:57.403Z,2.36
2023-02-14T18:38:25.986Z,2.35
2023-02-14T18:40:54.598Z,2.34
2023-02-14T18:43:22.783Z,2.35
2023-02-14T18:45:51.053Z,2.36
2023-02-14T18:48:19.305Z,2.37
2023-02-14T18:50:47.889Z,2.37
2023-02-14T18:53:18.273Z,2.38
2023-02-14T18:55:46.552Z,2.39
2023-02-14T18:58:15.067Z,2.41
2023-02-14T19:00:43.916Z,2.41
2023-02-14T19:03:12.035Z,2.43
2023-02-14T19:05:40.841Z,2.42
2023-02-14T19:08:09.788Z,2.40
2023-02-14T19:10:45.860Z,2.38
2023-02-14T19:13:14.111Z,2.39
2023-02-14T19:15:42.642Z,2.40
2023-02-14T19:18:10.971Z,2.41
2023-02-14T19:20:39.200Z,2.41
2023-02-14T19:23:07.881Z,2.42
2023-02-14T19:25:38.968Z,2.40
2023-02-14T19:28:07.297Z,2.39
2023-02-14T19:30:40.425Z,2.39
2023-02-14T19:33:08.874Z,2.37
2023-02-14T19:35:40.218Z,2.38
2023-02-14T19:38:08.387Z,2.38
2023-02-14T19:40:36.421Z,2.37
2023-02-14T19:43:04.765Z,2.36
2023-02-14T19:45:33.259Z,2.36
2023-02-14T19:48:03.539Z,2.36
2023-02-14T19:50:32.075Z,2.35
2023-02-14T19:53:00.353Z,2.36
2023-02-14T19:55:28.892Z,2.36
2023-02-14T19:57:57.819Z,2.34
2023-02-14T20:00:29.431Z,2.34
2023-02-14T20:03:01.713Z,2.33
2023-02-14T20:05:33.263Z,2.33
2023-02-14T20:08:01.745Z,2.31
2023-02-14T20:10:29.920Z,2.28
2023-02-14T20:12:58.127Z,2.27
2023-02-14T20:15:30.593Z,2.28
2023-02-14T20:18:02.641Z,2.26
2023-02-14T20:21:04.602Z,2.27
2023-02-14T20:23:34.003Z,2.27
2023-02-14T20:26:02.576Z,2.28
2023-02-14T20:28:31.483Z,2.29
2023-02-14T20:31:00.313Z,2.30
2023-02-14T20:33:31.413Z,2.30
2023-02-14T20:36:01.628Z,2.29
2023-02-14T20:38:32.467Z,2.29
2023-02-14T20:41:09.042Z,2.29
2023-02-14T20:43:38.540Z,2.28
2023-02-14T20:46:10.014Z,2.28
2023-02-14T20:48:41.192Z,2.28
2023-02-14T20:51:13.973Z,2.28
2023-02-14T20:53:46.497Z,2.27
2023-02-14T20:56:21.224Z,2.25
2023-02-14T20:59:07.021Z,2.23
2023-02-14T21:01:37.986Z,2.19
2023-02-14T21:04:22.112Z,2.17
2023-02-14T21:06:50.891Z,2.14
2023-02-14T21:09:22.081Z,2.14
2023-02-14T21:11:53.865Z,2.13
2023-02-14T21:14:53.716Z,2.12
2023-02-14T21:17:21.823Z,2.11
2023-02-14T21:19:53.355Z,2.10
2023-02-14T21:22:24.068Z,2.09
2023-02-14T21:24:52.563Z,2.05
2023-02-14T21:27:22.984Z,2.04
2023-02-14T21:29:51.474Z,2.03
2023-02-14T21:32:30.088Z,2.00
2023-02-14T21:35:00.919Z,1.99
2023-02-14T21:37:32.176Z,1.96
2023-02-14T21:40:00.456Z,1.93
2023-02-14T21:42:31.357Z,1.89
2023-02-14T21:45:19.834Z,1.85
2023-02-14T21:48:09.924Z,1.81
2023-02-14T21:50:40.963Z,1.78
2023-02-14T21:53:09.550Z,1.75
2023-02-14T21:55:38.635Z,1.74
2023-02-14T21:58:06.807Z,1.75
2023-02-14T22:00:36.140Z,1.76
2023-02-14T22:03:13.267Z,1.76
2023-02-14T22:05:41.798Z,1.77
2023-02-14T22:08:10.061Z,1.77
2023-02-14T22:10:41.312Z,1.75
2023-02-14T22:13:09.586Z,1.73
2023-02-14T22:15:40.133Z,1.73
2023-02-14T22:18:08.493Z,1.75
2023-02-14T22:20:36.679Z,1.72
2023-02-14T22:23:04.783Z,1.72
2023-02-14T22:25:33.326Z,1.67
2023-02-14T22:28:01.596Z,1.69
2023-02-14T22:30:29.781Z,1.68
2023-02-14T22:32:58.489Z,1.65
2023-02-14T22:35:27.273Z,1.62
2023-02-14T22:37:56.110Z,1.61
2023-02-14T22:40:24.411Z,1.59
2023-02-14T22:43:01.555Z,1.58
2023-02-14T22:45:29.609Z,1.58
2023-02-14T22:47:57.666Z,1.59
2023-02-14T22:50:26.217Z,1.60
2023-02-14T22:52:57.027Z,1.62
2023-02-14T22:55:31.372Z,1.63
2023-02-14T22:58:00.770Z,1.62
2023-02-14T23:00:28.976Z,1.63
2023-02-14T23:02:57.244Z,1.64
2023-02-14T23:05:28.069Z,1.64
2023-02-14T23:07:56.242Z,1.61
2023-02-14T23:10:24.721Z,1.59
2023-02-14T23:13:12.249Z,1.56
2023-02-14T23:15:59.144Z,1.52
2023-02-14T23:18:46.183Z,1.48
2023-02-14T23:21:33.116Z,1.43
2023-02-14T23:24:01.579Z,1.39
2023-02-14T23:26:29.686Z,1.33
2023-02-14T23:28:57.798Z,1.28
2023-02-14T23:31:26.501Z,1.21
2023-02-14T23:33:54.786Z,1.19
2023-02-14T23:36:26.032Z,1.14
2023-02-14T23:38:54.512Z,1.10
2023-02-14T23:41:41.505Z,1.08
2023-02-14T23:44:09.914Z,1.07
2023-02-14T23:46:38.087Z,1.05
2023-02-14T23:49:06.755Z,1.04
2023-02-14T23:51:36.380Z,1.03
2023-02-14T23:54:04.973Z,0.99
2023-02-14T23:56:33.550Z,0.95
2023-02-14T23:59:02.030Z,0.89
